createdAt,value
2023-03-16T00:02:06.585Z,101808.69
2023-03-16T00:04:37.417Z,101816.69
2023-03-16T00:07:05.759Z,101812.13
2023-03-16T00:09:33.838Z,101805.13
2023-03-16T00:12:03.682Z,101807.94
2023-03-16T00:14:31.973Z,101800.56
2023-03-16T00:17:01.952Z,101809.22
2023-03-16T00:19:30.327Z,101800.56
2023-03-16T00:21:58.911Z,101805.41
2023-03-16T00:24:26.937Z,101798.56
2023-03-16T00:26:55.501Z,101794.03
2023-03-16T00:29:23.494Z,101788.47
2023-03-16T00:31:52.351Z,101786.69
2023-03-16T00:34:22.851Z,101773.66
2023-03-16T00:36:50.917Z,101781.53
2023-03-16T00:39:20.617Z,101778.72
2023-03-16T00:41:48.631Z,101774.84
2023-03-16T00:44:16.531Z,101776.59
2023-03-16T00:46:44.333Z,101777.31
2023-03-16T00:49:12.378Z,101785.03
2023-03-16T00:51:45.916Z,101779.09
2023-03-16T00:54:13.594Z,101775.00
2023-03-16T00:56:42.976Z,101779.78
2023-03-16T00:59:12.999Z,101776.75
2023-03-16T01:01:41.835Z,101777.66
2023-03-16T01:04:10.913Z,101764.59
2023-03-16T01:06:39.961Z,101764.25
2023-03-16T01:09:09.690Z,101757.97
2023-03-16T01:11:37.787Z,101772.59
2023-03-16T01:14:06.919Z,101753.66
2023-03-16T01:16:34.918Z,101754.97
2023-03-16T01:19:03.064Z,101727.09
2023-03-16T01:21:33.683Z,101735.50
2023-03-16T01:24:01.785Z,101732.16
2023-03-16T01:26:32.303Z,101722.41
2023-03-16T01:29:00.402Z,101714.44
2023-03-16T01:31:29.269Z,101711.97
2023-03-16T01:33:57.802Z,101713.88
2023-03-16T01:36:29.185Z,101718.28
2023-03-16T01:39:06.759Z,101722.31
2023-03-16T01:41:44.947Z,101716.31
2023-03-16T01:44:15.987Z,101716.59
2023-03-16T01:46:44.371Z,101703.06
2023-03-16T01:49:15.832Z,101701.88
2023-03-16T01:51:50.803Z,101692.81
2023-03-16T01:54:25.126Z,101699.56
2023-03-16T01:57:01.197Z,101699.19
2023-03-16T01:59:34.207Z,101701.56
2023-03-16T02:02:03.478Z,101697.59
2023-03-16T02:04:42.234Z,101700.34
2023-03-16T02:07:11.370Z,101682.63
2023-03-16T02:09:44.058Z,101682.97
2023-03-16T02:12:18.113Z,101683.34
2023-03-16T02:14:51.848Z,101680.03
2023-03-16T02:17:24.326Z,101682.13
2023-03-16T02:20:09.566Z,101672.78
2023-03-16T02:22:43.788Z,101663.28
2023-03-16T02:25:12.277Z,101664.16
2023-03-16T02:27:53.283Z,101657.13
2023-03-16T02:30:23.039Z,101655.41
2023-03-16T02:33:05.293Z,101658.00
2023-03-16T02:35:33.535Z,101654.31
2023-03-16T02:38:03.596Z,101656.63
2023-03-16T02:40:38.772Z,101641.03
2023-03-16T02:43:14.371Z,101642.00
2023-03-16T02:45:53.058Z,101643.69
2023-03-16T02:48:28.511Z,101634.97
2023-03-16T02:50:57.065Z,101643.06
2023-03-16T02:53:26.242Z,101641.97
2023-03-16T02:55:54.305Z,101649.00
2023-03-16T02:58:22.375Z,101639.28
2023-03-16T03:00:51.979Z,101641.25
2023-03-16T03:03:19.955Z,101635.94
2023-03-16T03:05:48.036Z,101638.41
2023-03-16T03:08:16.719Z,101637.06
2023-03-16T03:10:44.860Z,101633.19
2023-03-16T03:13:13.275Z,101628.16
2023-03-16T03:15:41.978Z,101620.13
2023-03-16T03:18:14.665Z,101620.41
2023-03-16T03:20:43.638Z,101610.44
2023-03-16T03:23:11.556Z,101611.03
2023-03-16T03:25:39.482Z,101608.38
2023-03-16T03:28:07.641Z,101605.03
2023-03-16T03:30:37.087Z,101602.91
2023-03-16T03:33:06.342Z,101598.28
2023-03-16T03:35:35.930Z,101591.38
2023-03-16T03:38:04.464Z,101590.78
2023-03-16T03:40:32.476Z,101581.91
2023-03-16T03:43:03.900Z,101578.47
2023-03-16T03:45:34.896Z,101595.31
2023-03-16T03:48:03.131Z,101586.22
2023-03-16T03:50:31.197Z,101589.31
2023-03-16T03:53:21.014Z,101588.34
2023-03-16T03:56:24.690Z,101570.25
2023-03-16T03:58:52.857Z,101567.63
2023-03-16T04:01:32.676Z,101573.94
2023-03-16T04:04:01.075Z,101576.03
2023-03-16T04:06:29.592Z,101569.03
2023-03-16T04:08:58.916Z,101565.94
2023-03-16T04:11:28.747Z,101566.78
2023-03-16T04:13:57.052Z,101568.75
2023-03-16T04:16:26.957Z,101571.59
2023-03-16T04:18:56.674Z,101563.59
2023-03-16T04:21:25.778Z,101569.66
2023-03-16T04:23:54.752Z,101577.50
2023-03-16T04:26:32.580Z,101574.06
2023-03-16T04:29:00.706Z,101571.22
2023-03-16T04:31:29.072Z,101555.13
2023-03-16T04:33:57.090Z,101555.47
2023-03-16T04:36:25.243Z,101553.78
2023-03-16T04:38:54.289Z,101551.91
2023-03-16T04:41:22.186Z,101546.00
2023-03-16T04:43:59.416Z,101538.25
2023-03-16T04:46:27.927Z,101539.69
2023-03-16T04:48:58.552Z,101528.75
2023-03-16T04:51:28.971Z,101530.59
2023-03-16T04:54:05.313Z,101536.75
2023-03-16T04:56:41.521Z,101525.69
2023-03-16T04:59:19.900Z,101526.69
2023-03-16T05:02:01.798Z,101524.63
2023-03-16T05:04:30.002Z,101527.06
2023-03-16T05:06:58.036Z,101522.25
2023-03-16T05:09:30.473Z,101524.19
2023-03-16T05:11:58.688Z,101520.41
2023-03-16T05:14:28.746Z,101520.78
2023-03-16T05:17:10.199Z,101520.03
2023-03-16T05:19:38.205Z,101515.34
2023-03-16T05:22:06.590Z,101518.69
2023-03-16T05:24:37.222Z,101519.16
2023-03-16T05:27:05.878Z,101511.06
2023-03-16T05:29:36.251Z,101511.91
2023-03-16T05:32:04.488Z,101512.31
2023-03-16T05:34:33.382Z,101507.13
2023-03-16T05:37:01.753Z,101509.72
2023-03-16T05:39:30.945Z,101517.59
2023-03-16T05:41:58.952Z,101511.41
2023-03-16T05:44:44.910Z,101505.78
2023-03-16T05:47:18.373Z,101500.50
2023-03-16T05:49:52.068Z,101511.56
2023-03-16T05:52:28.173Z,101516.00
2023-03-16T05:54:58.351Z,101510.69
2023-03-16T05:57:26.445Z,101513.03
2023-03-16T05:59:56.594Z,101514.88
2023-03-16T06:02:26.928Z,101515.25
2023-03-16T06:04:55.871Z,101513.13
2023-03-16T06:07:24.943Z,101504.13
2023-03-16T06:09:55.827Z,101502.94
2023-03-16T06:12:23.861Z,101506.53
2023-03-16T06:14:51.826Z,101510.06
2023-03-16T06:17:21.524Z,101511.44
2023-03-16T06:19:49.606Z,101510.34
2023-03-16T06:22:19.119Z,101511.09
2023-03-16T06:24:47.161Z,101509.34
2023-03-16T06:27:16.064Z,101508.59
2023-03-16T06:29:59.123Z,101486.34
2023-03-16T06:32:28.678Z,101495.56
2023-03-16T06:34:59.437Z,101497.78
2023-03-16T06:37:27.855Z,101500.75
2023-03-16T06:39:56.027Z,101499.78
2023-03-16T06:42:25.012Z,101497.66
2023-03-16T06:44:53.717Z,101500.09
2023-03-16T06:47:21.727Z,101498.63
2023-03-16T06:49:51.898Z,101488.19
2023-03-16T06:52:22.856Z,101495.31
2023-03-16T06:54:51.048Z,101501.31
2023-03-16T06:57:20.443Z,101492.84
2023-03-16T06:59:48.418Z,101489.44
2023-03-16T07:02:17.031Z,101495.06
2023-03-16T07:04:45.604Z,101492.50
2023-03-16T07:07:15.233Z,101484.75
2023-03-16T07:09:43.228Z,101501.84
2023-03-16T07:12:11.699Z,101496.44
2023-03-16T07:14:39.788Z,101491.25
2023-03-16T07:17:10.553Z,101495.22
2023-03-16T07:19:38.502Z,101493.53
2023-03-16T07:22:06.714Z,101493.16
2023-03-16T07:24:39.952Z,101491.34
2023-03-16T07:27:07.915Z,101492.25
2023-03-16T07:29:35.840Z,101490.50
2023-03-16T07:32:06.356Z,101500.47
2023-03-16T07:34:38.820Z,101495.69
2023-03-16T07:37:08.944Z,101512.38
2023-03-16T07:39:37.180Z,101497.41
2023-03-16T07:42:12.013Z,101501.84
2023-03-16T07:44:51.890Z,101500.00
2023-03-16T07:47:21.098Z,101506.66
2023-03-16T07:49:50.509Z,101498.16
2023-03-16T07:52:18.927Z,101497.66
2023-03-16T07:54:48.951Z,101494.84
2023-03-16T07:57:18.452Z,101498.41
2023-03-16T07:59:46.531Z,101505.50
2023-03-16T08:02:18.892Z,101499.59
2023-03-16T08:04:47.675Z,101500.38
2023-03-16T08:07:17.304Z,101498.16
2023-03-16T08:10:06.895Z,101500.13
2023-03-16T08:12:44.217Z,101491.38
2023-03-16T08:15:13.002Z,101497.06
2023-03-16T08:17:42.511Z,101488.44
2023-03-16T08:20:16.112Z,101485.34
2023-03-16T08:22:46.377Z,101487.59
2023-03-16T08:25:17.711Z,101495.56
2023-03-16T08:27:55.529Z,101489.66
2023-03-16T08:30:23.785Z,101495.81
2023-03-16T08:33:06.674Z,101496.81
2023-03-16T08:35:36.080Z,101501.00
2023-03-16T08:38:04.681Z,101499.09
2023-03-16T08:40:34.875Z,101494.53
2023-03-16T08:43:04.960Z,101489.91
2023-03-16T08:45:33.916Z,101499.50
2023-03-16T08:48:01.826Z,101500.72
2023-03-16T08:50:31.279Z,101504.75
2023-03-16T08:52:59.420Z,101504.03
2023-03-16T08:55:28.990Z,101498.41
2023-03-16T08:57:57.156Z,101504.28
2023-03-16T09:00:26.715Z,101503.50
2023-03-16T09:02:55.547Z,101512.91
2023-03-16T09:05:25.438Z,101513.16
2023-03-16T09:07:54.604Z,101508.59
2023-03-16T09:10:23.376Z,101503.28
2023-03-16T09:12:52.197Z,101505.63
2023-03-16T09:15:21.918Z,101503.31
2023-03-16T09:17:51.777Z,101486.59
2023-03-16T09:20:26.463Z,101504.28
2023-03-16T09:22:56.564Z,101505.88
2023-03-16T09:25:25.797Z,101499.47
2023-03-16T09:27:53.868Z,101497.41
2023-03-16T09:30:22.125Z,101487.47
2023-03-16T09:32:51.859Z,101486.22
2023-03-16T09:35:20.403Z,101490.53
2023-03-16T09:38:05.081Z,101486.59
2023-03-16T09:40:34.383Z,101469.88
2023-03-16T09:43:18.014Z,101470.00
2023-03-16T09:45:53.276Z,101467.03
2023-03-16T09:48:25.204Z,101470.47
2023-03-16T09:50:56.784Z,101466.69
2023-03-16T09:53:29.430Z,101478.97
2023-03-16T09:56:03.533Z,101462.25
2023-03-16T09:58:32.911Z,101472.09
2023-03-16T10:01:10.040Z,101469.16
2023-03-16T10:04:00.790Z,101462.50
2023-03-16T10:06:29.530Z,101464.31
2023-03-16T10:09:05.546Z,101469.75
2023-03-16T10:11:39.097Z,101463.72
2023-03-16T10:14:17.576Z,101473.44
2023-03-16T10:16:51.561Z,101460.53
2023-03-16T10:19:27.179Z,101460.41
2023-03-16T10:21:58.970Z,101452.78
2023-03-16T10:24:39.420Z,101464.81
2023-03-16T10:27:13.725Z,101456.66
2023-03-16T10:29:41.880Z,101450.53
2023-03-16T10:32:16.566Z,101442.56
2023-03-16T10:34:53.500Z,101444.00
2023-03-16T10:37:21.501Z,101431.94
2023-03-16T10:39:50.139Z,101423.72
2023-03-16T10:42:21.324Z,101421.25
2023-03-16T10:44:49.635Z,101417.56
2023-03-16T10:47:21.272Z,101423.44
2023-03-16T10:49:51.525Z,101415.41
2023-03-16T10:52:24.951Z,101412.94
2023-03-16T10:54:57.756Z,101414.91
2023-03-16T10:57:27.991Z,101408.16
2023-03-16T11:00:00.758Z,101412.91
2023-03-16T11:02:34.168Z,101406.22
2023-03-16T11:05:16.892Z,101420.91
2023-03-16T11:07:50.073Z,101411.59
2023-03-16T11:10:33.308Z,101415.31
2023-03-16T11:13:04.775Z,101408.34
2023-03-16T11:15:40.885Z,101387.94
2023-03-16T11:18:17.962Z,101391.03
2023-03-16T11:20:48.002Z,101383.00
2023-03-16T11:23:20.081Z,101368.72
2023-03-16T11:25:54.411Z,101391.63
2023-03-16T11:28:33.651Z,101374.06
2023-03-16T11:31:10.097Z,101376.44
2023-03-16T11:33:38.292Z,101370.97
2023-03-16T11:36:30.366Z,101371.84
2023-03-16T11:39:08.501Z,101372.47
2023-03-16T11:41:48.409Z,101365.72
2023-03-16T11:44:25.801Z,101365.34
2023-03-16T11:47:01.740Z,101365.66
2023-03-16T11:49:49.031Z,101355.44
2023-03-16T11:52:26.569Z,101347.72
2023-03-16T11:55:06.359Z,101350.44
2023-03-16T11:57:46.985Z,101353.09
2023-03-16T12:00:28.758Z,101360.03
2023-03-16T12:03:19.990Z,101355.00
2023-03-16T12:05:58.152Z,101349.97
2023-03-16T12:08:45.077Z,101356.13
2023-03-16T12:11:21.035Z,101345.63
2023-03-16T12:14:03.140Z,101346.25
2023-03-16T12:16:48.437Z,101346.44
2023-03-16T12:19:24.827Z,101338.59
2023-03-16T12:22:04.281Z,101331.34
2023-03-16T12:24:39.979Z,101333.16
2023-03-16T12:27:15.985Z,101306.66
2023-03-16T12:29:55.613Z,101300.25
2023-03-16T12:32:37.594Z,101310.97
2023-03-16T12:35:17.776Z,101308.59
2023-03-16T12:37:58.570Z,101304.47
2023-03-16T12:40:39.653Z,101307.03
2023-03-16T12:43:26.121Z,101293.03
2023-03-16T12:46:03.449Z,101303.06
2023-03-16T12:48:34.600Z,101295.38
2023-03-16T12:51:06.104Z,101282.22
2023-03-16T12:53:44.494Z,101279.94
2023-03-16T12:56:16.348Z,101285.34
2023-03-16T12:58:47.113Z,101273.97
2023-03-16T13:01:17.374Z,101275.53
2023-03-16T13:03:49.772Z,101278.25
2023-03-16T13:06:25.674Z,101286.66
2023-03-16T13:08:59.666Z,101271.25
2023-03-16T13:11:29.572Z,101274.66
2023-03-16T13:14:12.886Z,101279.59
2023-03-16T13:16:43.879Z,101272.34
2023-03-16T13:19:25.977Z,101264.94
2023-03-16T13:22:04.385Z,101257.66
2023-03-16T13:24:41.056Z,101254.53
2023-03-16T13:27:24.154Z,101251.38
2023-03-16T13:29:58.012Z,101241.53
2023-03-16T13:32:31.182Z,101232.50
2023-03-16T13:35:01.134Z,101236.66
2023-03-16T13:37:30.870Z,101234.22
2023-03-16T13:40:00.303Z,101217.31
2023-03-16T13:42:31.495Z,101225.03
2023-03-16T13:45:00.972Z,101212.56
2023-03-16T13:47:29.140Z,101221.22
2023-03-16T13:49:59.023Z,101213.28
2023-03-16T13:52:29.298Z,101218.06
2023-03-16T13:54:59.518Z,101206.63
2023-03-16T13:57:31.765Z,101201.56
2023-03-16T14:00:06.751Z,101201.19
2023-03-16T14:02:42.511Z,101203.03
2023-03-16T14:05:12.970Z,101199.16
2023-03-16T14:07:41.069Z,101190.94
2023-03-16T14:10:12.241Z,101188.03
2023-03-16T14:12:52.025Z,101190.13
2023-03-16T14:15:22.078Z,101200.28
2023-03-16T14:17:51.789Z,101186.66
2023-03-16T14:20:21.896Z,101186.88
2023-03-16T14:22:53.310Z,101181.91
2023-03-16T14:25:25.657Z,101174.94
2023-03-16T14:28:01.025Z,101168.19
2023-03-16T14:30:32.090Z,101164.31
2023-03-16T14:33:02.692Z,101163.38
2023-03-16T14:35:33.175Z,101161.34
2023-03-16T14:38:23.386Z,101143.84
2023-03-16T14:40:56.330Z,101147.06
2023-03-16T14:43:31.401Z,101142.91
2023-03-16T14:46:00.232Z,101131.13
2023-03-16T14:48:30.284Z,101144.47
2023-03-16T14:51:01.541Z,101139.53
2023-03-16T14:53:29.647Z,101131.59
2023-03-16T14:55:58.493Z,101124.63
2023-03-16T14:58:27.909Z,101123.03
2023-03-16T15:00:56.630Z,101134.75
2023-03-16T15:03:33.797Z,101133.69
2023-03-16T15:06:03.385Z,101132.44
2023-03-16T15:08:33.692Z,101128.03
2023-03-16T15:11:04.916Z,101118.28
2023-03-16T15:13:53.292Z,101116.19
2023-03-16T15:16:23.269Z,101109.16
2023-03-16T15:18:51.922Z,101111.34
2023-03-16T15:21:25.117Z,101107.78
2023-03-16T15:23:53.266Z,101103.34
2023-03-16T15:26:26.259Z,101113.13
2023-03-16T15:28:56.754Z,101109.84
2023-03-16T15:31:27.168Z,101113.91
2023-03-16T15:33:55.584Z,101110.72
2023-03-16T15:36:25.089Z,101106.06
2023-03-16T15:38:55.971Z,101100.63
2023-03-16T15:41:30.020Z,101091.28
2023-03-16T15:44:03.279Z,101090.19
2023-03-16T15:46:31.659Z,101087.41
2023-03-16T15:49:01.924Z,101085.53
2023-03-16T15:51:32.321Z,101068.84
2023-03-16T15:54:02.984Z,101073.50
2023-03-16T15:56:41.212Z,101080.94
2023-03-16T15:59:18.054Z,101077.69
2023-03-16T16:01:48.493Z,101074.97
2023-03-16T16:04:19.554Z,101081.81
2023-03-16T16:06:48.509Z,101073.69
2023-03-16T16:09:16.804Z,101072.00
2023-03-16T16:11:47.192Z,101073.78
2023-03-16T16:14:18.286Z,101064.53
2023-03-16T16:16:47.836Z,101063.63
2023-03-16T16:19:16.625Z,101064.94
2023-03-16T16:21:46.399Z,101051.47
2023-03-16T16:24:15.804Z,101054.47
2023-03-16T16:26:53.754Z,101042.13
2023-03-16T16:29:25.970Z,101026.91
2023-03-16T16:31:54.363Z,101032.25
2023-03-16T16:34:25.172Z,101034.44
2023-03-16T16:36:53.925Z,101030.22
2023-03-16T16:39:22.146Z,101025.53
2023-03-16T16:41:54.374Z,101031.00
2023-03-16T16:44:27.473Z,101029.47
2023-03-16T16:46:55.867Z,101032.97
2023-03-16T16:49:25.975Z,101022.63
2023-03-16T16:51:54.461Z,101025.41
2023-03-16T16:54:24.208Z,101019.34
2023-03-16T16:56:55.000Z,101028.25
2023-03-16T16:59:27.404Z,101011.22
2023-03-16T17:01:56.680Z,101007.88
2023-03-16T17:04:27.157Z,101014.81
2023-03-16T17:06:58.778Z,101015.09
2023-03-16T17:09:29.078Z,101010.94
2023-03-16T17:11:59.975Z,101009.66
2023-03-16T17:14:31.091Z,101006.59
2023-03-16T17:17:05.348Z,101018.22
2023-03-16T17:19:33.340Z,101023.88
2023-03-16T17:22:01.431Z,101029.97
2023-03-16T17:24:29.988Z,101018.13
2023-03-16T17:27:02.119Z,101017.81
2023-03-16T17:29:33.017Z,101027.28
2023-03-16T17:32:02.508Z,101026.91
2023-03-16T17:34:32.967Z,101028.78
2023-03-16T17:37:02.095Z,101029.38
2023-03-16T17:39:33.890Z,101035.38
2023-03-16T17:42:06.231Z,101042.78
2023-03-16T17:44:38.995Z,101036.97
2023-03-16T17:47:14.770Z,101038.69
2023-03-16T17:49:44.872Z,101042.41
2023-03-16T17:52:18.185Z,101038.22
2023-03-16T17:54:46.944Z,101043.44
2023-03-16T17:57:18.386Z,101042.94
2023-03-16T17:59:52.684Z,101039.38
2023-03-16T18:02:39.291Z,101041.47
2023-03-16T18:05:09.591Z,101038.50
2023-03-16T18:07:37.526Z,101041.31
2023-03-16T18:10:06.241Z,101034.09
2023-03-16T18:12:34.256Z,101023.91
2023-03-16T18:15:04.622Z,101035.09
2023-03-16T18:17:35.895Z,101012.88
2023-03-16T18:20:05.044Z,101019.41
2023-03-16T18:22:33.250Z,101024.22
2023-03-16T18:25:02.210Z,101015.50
2023-03-16T18:27:30.178Z,101018.47
2023-03-16T18:29:58.215Z,101008.53
2023-03-16T18:32:31.168Z,101006.34
2023-03-16T18:34:59.646Z,100998.50
2023-03-16T18:37:28.473Z,101003.19
2023-03-16T18:39:56.731Z,101006.13
2023-03-16T18:42:27.755Z,100993.91
2023-03-16T18:44:55.893Z,101002.09
2023-03-16T18:47:31.442Z,100991.13
2023-03-16T18:50:00.761Z,100990.25
2023-03-16T18:52:31.087Z,100991.59
2023-03-16T18:54:59.111Z,100993.16
2023-03-16T18:57:28.930Z,100976.66
2023-03-16T18:59:57.064Z,100982.97
2023-03-16T19:02:29.831Z,100972.41
2023-03-16T19:05:01.699Z,100975.66
2023-03-16T19:07:34.770Z,100964.25
2023-03-16T19:10:06.563Z,100972.00
2023-03-16T19:12:34.633Z,100969.38
2023-03-16T19:15:02.902Z,100965.97
2023-03-16T19:17:31.033Z,100966.59
2023-03-16T19:20:00.369Z,100964.19
2023-03-16T19:22:28.622Z,100966.03
2023-03-16T19:24:57.505Z,100977.25
2023-03-16T19:27:27.297Z,100962.84
2023-03-16T19:29:56.729Z,100948.00
2023-03-16T19:32:24.888Z,100945.69
2023-03-16T19:34:53.235Z,100953.59
2023-03-16T19:37:23.902Z,100950.03
2023-03-16T19:39:52.052Z,100951.34
2023-03-16T19:42:23.400Z,100955.94
2023-03-16T19:44:52.025Z,100947.84
2023-03-16T19:47:27.819Z,100934.06
2023-03-16T19:49:55.957Z,100921.38
2023-03-16T19:52:25.462Z,100905.06
2023-03-16T19:54:53.567Z,100923.31
2023-03-16T19:57:22.114Z,100932.56
2023-03-16T19:59:53.250Z,100922.53
2023-03-16T20:02:26.555Z,100913.44
2023-03-16T20:04:54.960Z,100914.53
2023-03-16T20:07:25.655Z,100913.59
2023-03-16T20:09:53.931Z,100912.81
2023-03-16T20:12:24.444Z,100911.50
2023-03-16T20:14:52.890Z,100918.16
2023-03-16T20:17:23.537Z,100913.13
2023-03-16T20:19:52.224Z,100916.84
2023-03-16T20:22:22.207Z,100916.19
2023-03-16T20:24:51.806Z,100907.72
2023-03-16T20:27:21.260Z,100896.84
2023-03-16T20:29:49.984Z,100895.38
2023-03-16T20:32:20.616Z,100894.19
2023-03-16T20:34:50.343Z,100890.94
2023-03-16T20:37:23.772Z,100880.75
2023-03-16T20:39:53.887Z,100876.53
2023-03-16T20:42:25.880Z,100882.56
2023-03-16T20:44:53.774Z,100885.44
2023-03-16T20:47:24.021Z,100877.91
2023-03-16T20:49:52.675Z,100874.41
2023-03-16T20:52:23.062Z,100882.88
2023-03-16T20:54:52.938Z,100885.28
2023-03-16T20:57:22.719Z,100873.50
2023-03-16T20:59:53.872Z,100873.03
2023-03-16T21:02:29.906Z,100865.84
2023-03-16T21:04:59.434Z,100854.41
2023-03-16T21:07:27.804Z,100863.50
2023-03-16T21:09:57.884Z,100862.13
2023-03-16T21:12:28.177Z,100865.91
2023-03-16T21:14:57.261Z,100872.25
2023-03-16T21:17:30.750Z,100868.66
2023-03-16T21:19:59.432Z,100865.94
2023-03-16T21:22:28.910Z,100868.09
2023-03-16T21:24:58.656Z,100867.56
2023-03-16T21:27:28.969Z,100864.19
2023-03-16T21:29:59.564Z,100860.34
2023-03-16T21:32:28.629Z,100858.16
2023-03-16T21:34:58.119Z,100857.97
2023-03-16T21:37:26.313Z,100853.56
2023-03-16T21:39:54.675Z,100852.25
2023-03-16T21:42:24.002Z,100852.75
2023-03-16T21:44:52.359Z,100860.81
2023-03-16T21:47:25.857Z,100847.13
2023-03-16T21:49:54.773Z,100842.13
2023-03-16T21:52:24.771Z,100833.94
2023-03-16T21:54:53.540Z,100842.78
2023-03-16T21:57:21.878Z,100840.03
2023-03-16T21:59:51.883Z,100836.94
2023-03-16T22:02:23.277Z,100836.88
2023-03-16T22:04:52.272Z,100834.63
2023-03-16T22:07:23.040Z,100835.47
2023-03-16T22:09:51.241Z,100831.44
2023-03-16T22:12:19.426Z,100828.84
2023-03-16T22:14:47.578Z,100822.78
2023-03-16T22:17:21.996Z,100825.56
2023-03-16T22:19:50.158Z,100824.16
2023-03-16T22:22:18.801Z,100831.97
2023-03-16T22:24:47.423Z,100829.25
2023-03-16T22:27:18.801Z,100829.50
2023-03-16T22:29:46.734Z,100831.22
2023-03-16T22:32:21.455Z,100829.06
2023-03-16T22:34:51.971Z,100824.75
2023-03-16T22:37:23.040Z,100823.09
2023-03-16T22:39:51.585Z,100831.34
2023-03-16T22:42:28.074Z,100815.72
2023-03-16T22:44:56.663Z,100817.75
2023-03-16T22:47:27.871Z,100823.09
2023-03-16T22:49:56.013Z,100823.81
2023-03-16T22:52:28.891Z,100823.88
2023-03-16T22:54:57.542Z,100819.63
2023-03-16T22:57:25.779Z,100823.53
2023-03-16T22:59:53.974Z,100822.03
2023-03-16T23:02:25.507Z,100812.31
2023-03-16T23:04:56.002Z,100818.44
2023-03-16T23:07:24.026Z,100814.91
2023-03-16T23:09:52.347Z,100810.38
2023-03-16T23:12:22.457Z,100816.22
2023-03-16T23:14:51.580Z,100812.31
2023-03-16T23:17:22.270Z,100806.31
2023-03-16T23:19:50.426Z,100801.56
2023-03-16T23:22:19.742Z,100804.28
2023-03-16T23:24:47.663Z,100800.88
2023-03-16T23:27:18.289Z,100787.22
2023-03-16T23:29:46.932Z,100783.88
2023-03-16T23:32:16.837Z,100796.22
2023-03-16T23:34:45.179Z,100794.38
2023-03-16T23:37:13.237Z,100775.72
2023-03-16T23:39:42.608Z,100786.00
2023-03-16T23:42:10.991Z,100791.88
2023-03-16T23:44:38.962Z,100801.56
2023-03-16T23:47:07.207Z,100813.94
2023-03-16T23:49:42.077Z,100801.38
2023-03-16T23:52:13.517Z,100801.69
2023-03-16T23:54:43.298Z,100793.09
2023-03-16T23:57:11.524Z,100805.59
2023-03-16T23:59:39.657Z,100823.88
